Flight Track Log - Related Links

Times and Time Zones

All times are in EDT time to prevent confusion due to time zone crossing. See the JIA2373 flight status page for this flight to view local times or setup timezone preferences in your user account.

Time Position Orientation Groundspeed Altitude Reporting Facility
EDT Latitude Longitude Course Direction KTS MPH feet Rate Location/Type
Sun 11:40:15 AM 34.9941 -78.9049 95° East  Level FlightAware Approximate
Sun 11:41:15 AM 34.9207 -78.9459 56° Northeast  Level FlightAware Approximate
Sun 11:42:14 AM 34.9878 -78.8244 212° Southwest 119 137 3,900  Level Washington Center
Sun 11:43:12 AM 34.9344 -78.8653 223° Southwest 180 207 5,600 2,370 Climbing Washington Center
Sun 11:44:13 AM 34.8719 -78.9361 225° Southwest 241 277 8,600 2,182 Climbing Washington Center
Sun 11:45:13 AM 34.8181 -79.0022 222° Southwest 289 333 10,000 1,891 Climbing Washington Center
Sun 11:46:58 AM 34.6903 -79.1406 223° Southwest 344 396 13,800 1,455 Climbing Jacksonville Center
Sun 11:47:58 AM 34.6297 -79.2089 222° Southwest 344 396 14,000 100 Climbing Jacksonville Center
Sun 11:48:58 AM 34.5608 -79.2847 224° Southwest 339 390 14,000  Level Jacksonville Center
Sun 11:49:57 AM 34.4883 -79.3711 215° Southwest 325 374 14,000  Level Jacksonville Center
Sun 11:50:57 AM 34.4189 -79.4292 199° South 333 383 14,000  Level Jacksonville Center
Sun 11:51:58 AM 34.3242 -79.4681 236° Southwest 353 406 14,000  Level Jacksonville Center
Sun 11:52:57 AM 34.2683 -79.5683 260° West 347 399 14,000  Level Jacksonville Center
Sun 11:53:57 AM 34.2525 -79.6819 307° West 323 372 14,000  Level Jacksonville Center
Sun 11:54:58 AM 34.3156 -79.7828 310° West 313 360 14,000  Level Jacksonville Center
Sun 11:55:58 AM 34.3803 -79.8761 310° West 335 386 14,000  Level Jacksonville Center
Sun 11:56:58 AM 34.4450 -79.9694 309° West 349 402 14,000  Level Jacksonville Center
Sun 11:57:58 AM 34.5100 -80.0681 310° West 365 420 14,000 61 Level Jacksonville Center
Sun 11:58:36 AM 34.5522 -80.1292 308° West 382 440 14,100 -308 Climbing FAA TRACON SMA TRACON (SMA)
Sun 11:59:16 AM 34.5914 -80.1900 309° West 371 427 13,600 -1,275 Descending FAA TRACON SMA TRACON (SMA)
Sun 11:59:56 AM 34.6328 -80.2519 314° West 343 395 12,400 -1,481 Descending FAA TRACON SMA TRACON (SMA)
Sun 12:00:37 PM 34.6736 -80.3036 313° West 309 356 11,600 -1,037 Descending FAA TRACON SMA TRACON (SMA)
Sun 12:01:17 PM 34.7119 -80.3528 312° West 291 335 11,000 -450 Descending FAA TRACON SMA TRACON (SMA)
Sun 12:01:57 PM 34.7447 -80.3975 295° West 288 331 11,000 -75 Level FAA TRACON SMA TRACON (SMA)
Sun 12:02:37 PM 34.7653 -80.4506 277° West 243 280 10,900 -911 Descending FAA TRACON SMA TRACON (SMA)
Sun 12:03:16 PM 34.7703 -80.4981 262° West 237 273 9,800 -1,671 Descending FAA TRACON SMA TRACON (SMA)
Sun 12:03:56 PM 34.7644 -80.5481 261° West 243 280 8,700 -1,350 Descending FAA TRACON SMA TRACON (SMA)
Sun 12:04:36 PM 34.7567 -80.6050 260° West 245 282 8,000 -525 Descending FAA TRACON SMA TRACON (SMA)
Sun 12:05:16 PM 34.7481 -80.6647 260° West 232 267 8,000  Level FAA TRACON SMA TRACON (SMA)
Sun 12:05:57 PM 34.7417 -80.7092 259° West 214 246 8,000  Level FAA TRACON SMA TRACON (SMA)
Sun 12:06:37 PM 34.7342 -80.7578 260° West 213 245 8,000  Level FAA TRACON SMA TRACON (SMA)
Sun 12:07:17 PM 34.7272 -80.8061 261° West 211 243 8,000  Level FAA TRACON SMA TRACON (SMA)
Sun 12:07:58 PM 34.7217 -80.8503 270° West 205 236 8,000  Level FAA TRACON SMA TRACON (SMA)
Sun 12:08:37 PM 34.7219 -80.8947 335° Northwest 202 232 8,000  Level FAA TRACON SMA TRACON (SMA)
Sun 12:09:17 PM 34.7531 -80.9122 357° North 206 237 8,000  Level FAA TRACON SMA TRACON (SMA)
Sun 12:09:57 PM 34.7936 -80.9150 355° North 207 238 8,000  Level FAA TRACON SMA TRACON (SMA)
Sun 12:10:36 PM 34.8256 -80.9183 355° North 194 223 8,000 -304 Level FAA TRACON SMA TRACON (SMA)
Sun 12:11:16 PM 34.8589 -80.9222 357° North 192 221 7,600 -900 Descending FAA TRACON SMA TRACON (SMA)
Sun 12:11:56 PM 34.8956 -80.9247 355° North 190 219 6,800 -1,125 Descending FAA TRACON SMA TRACON (SMA)
Sun 12:12:36 PM 34.9294 -80.9281 356° North 180 207 6,100 -1,012 Descending FAA TRACON SMA TRACON (SMA)
Sun 12:13:19 PM 34.9650 -80.9311 356° North 183 211 5,400 -963 Descending FAA TRACON SMA TRACON (SMA)
Sun 12:13:57 PM 34.9969 -80.9339 356° North 185 213 4,800 -1,013 Descending FAA TRACON SMA TRACON (SMA)
Sun 12:14:36 PM 35.0328 -80.9369 356° North 185 213 4,100 -1,077 Descending FAA TRACON SMA TRACON (SMA)

Login

Don't have an account? Register now (free) for customized features, flight alerts, and more!